createdAt,value
2018-01-29T00:01:57.962Z,1.60
2018-01-29T00:04:25.975Z,1.90
2018-01-29T00:06:54.227Z,1.98
2018-01-29T00:09:22.284Z,2.17
2018-01-29T00:11:50.259Z,1.45
2018-01-29T00:14:18.250Z,1.37
2018-01-29T00:16:47.466Z,1.73
2018-01-29T00:19:15.481Z,1.42
2018-01-29T00:21:43.496Z,2.05
2018-01-29T00:24:12.304Z,1.90
2018-01-29T00:26:40.242Z,2.00
2018-01-29T00:29:08.289Z,2.10
2018-01-29T00:31:36.263Z,1.52
2018-01-29T00:34:04.348Z,1.90
2018-01-29T00:36:32.328Z,1.85
2018-01-29T00:39:00.356Z,1.45
2018-01-29T00:41:28.643Z,1.55
2018-01-29T00:43:56.678Z,1.55
2018-01-29T00:46:25.516Z,2.08
2018-01-29T00:48:53.608Z,1.50
2018-01-29T00:51:21.623Z,1.67
2018-01-29T00:53:49.720Z,1.58
2018-01-29T00:56:17.746Z,1.65
2018-01-29T00:58:45.840Z,1.10
2018-01-29T01:01:13.847Z,1.73
2018-01-29T01:03:41.895Z,1.80
2018-01-29T01:06:10.639Z,1.40
2018-01-29T01:08:38.706Z,1.50
2018-01-29T01:11:09.482Z,1.42
2018-01-29T01:13:37.581Z,1.85
2018-01-29T01:16:05.808Z,1.55
2018-01-29T01:18:34.312Z,1.42
2018-01-29T01:21:02.245Z,1.20
2018-01-29T01:23:30.221Z,1.40
2018-01-29T01:25:58.158Z,1.17
2018-01-29T01:28:26.524Z,1.35
2018-01-29T01:30:54.445Z,1.05
2018-01-29T01:33:23.202Z,1.15
2018-01-29T01:35:51.135Z,1.25
2018-01-29T01:38:23.106Z,1.50
2018-01-29T01:40:51.052Z,1.33
2018-01-29T01:43:19.813Z,1.40
2018-01-29T01:45:47.789Z,1.10
2018-01-29T01:48:15.769Z,1.23
2018-01-29T01:50:43.735Z,1.00
2018-01-29T01:53:11.701Z,1.30
2018-01-29T01:55:39.621Z,0.98
2018-01-29T01:58:07.541Z,1.10
2018-01-29T02:00:36.299Z,1.10
2018-01-29T02:03:04.252Z,0.95
2018-01-29T02:05:32.998Z,0.90
2018-01-29T02:08:15.164Z,1.02
2018-01-29T02:10:43.140Z,1.10
2018-01-29T02:13:11.083Z,1.12
2018-01-29T02:15:39.058Z,1.10
2018-01-29T02:18:07.011Z,0.80
2018-01-29T02:20:34.990Z,1.20
2018-01-29T02:23:03.045Z,1.05
2018-01-29T02:25:31.033Z,1.27
2018-01-29T02:27:58.950Z,1.02
2018-01-29T02:30:26.944Z,1.25
2018-01-29T02:32:55.668Z,0.80
2018-01-29T02:35:23.647Z,0.60
2018-01-29T02:37:51.806Z,0.90
2018-01-29T02:40:20.368Z,1.23
2018-01-29T02:42:48.288Z,0.98
2018-01-29T02:45:16.308Z,0.90
2018-01-29T02:47:44.308Z,1.00
2018-01-29T02:50:12.338Z,0.70
2018-01-29T02:52:40.348Z,0.82
2018-01-29T02:55:08.359Z,0.60
2018-01-29T02:57:36.354Z,0.80
2018-01-29T03:00:05.218Z,0.75
2018-01-29T03:02:33.184Z,0.95
2018-01-29T03:05:01.153Z,0.90
2018-01-29T03:07:29.267Z,1.00
2018-01-29T03:09:57.997Z,0.90
2018-01-29T03:12:25.907Z,1.62
2018-01-29T03:14:53.860Z,0.73
2018-01-29T03:17:21.766Z,1.02
2018-01-29T03:19:49.718Z,0.80
2018-01-29T03:22:17.689Z,1.00
2018-01-29T03:24:46.429Z,0.98
2018-01-29T03:27:14.433Z,1.42
2018-01-29T03:29:42.394Z,0.90
2018-01-29T03:32:10.294Z,0.90
2018-01-29T03:34:39.026Z,1.37
2018-01-29T03:37:07.059Z,1.15
2018-01-29T03:39:35.024Z,0.85
2018-01-29T03:42:02.935Z,0.95
2018-01-29T03:44:30.917Z,0.93
2018-01-29T03:46:58.837Z,1.30
2018-01-29T03:49:26.797Z,1.00
2018-01-29T03:51:55.458Z,0.70
2018-01-29T03:54:23.408Z,0.82
2018-01-29T03:56:51.321Z,0.73
2018-01-29T03:59:20.047Z,0.85
2018-01-29T04:01:47.988Z,0.70
2018-01-29T04:04:15.947Z,1.00
2018-01-29T04:06:43.921Z,0.95
2018-01-29T04:09:12.637Z,0.80
2018-01-29T04:11:40.598Z,0.60
2018-01-29T04:14:08.536Z,0.90
2018-01-29T04:16:36.500Z,1.20
2018-01-29T04:19:04.441Z,0.70
2018-01-29T04:21:32.337Z,1.10
2018-01-29T04:24:00.277Z,1.20
2018-01-29T04:26:28.227Z,1.00
2018-01-29T04:28:56.121Z,1.10
2018-01-29T04:31:24.054Z,1.00
2018-01-29T04:33:51.929Z,1.05
2018-01-29T04:36:19.893Z,1.00
2018-01-29T04:38:47.772Z,1.10
2018-01-29T04:41:15.742Z,0.90
2018-01-29T04:43:43.641Z,0.85
2018-01-29T04:46:21.477Z,1.30
2018-01-29T04:48:49.400Z,0.70
2018-01-29T04:51:17.357Z,0.82
2018-01-29T04:53:45.278Z,1.15
2018-01-29T04:56:13.418Z,1.00
2018-01-29T04:58:41.304Z,1.05
2018-01-29T05:01:09.232Z,1.10
2018-01-29T05:03:37.147Z,1.27
2018-01-29T05:06:05.110Z,1.60
2018-01-29T05:08:33.012Z,1.62
2018-01-29T05:11:00.957Z,1.35
2018-01-29T05:13:28.865Z,2.42
2018-01-29T05:15:56.808Z,1.20
2018-01-29T05:18:24.739Z,1.37
2018-01-29T05:20:52.631Z,0.90
2018-01-29T05:23:20.579Z,1.10
2018-01-29T05:25:48.477Z,1.17
2018-01-29T05:28:16.428Z,1.12
2018-01-29T05:30:44.353Z,1.23
2018-01-29T05:33:12.288Z,1.35
2018-01-29T05:35:43.191Z,1.10
2018-01-29T05:38:11.199Z,1.65
2018-01-29T05:40:39.222Z,1.00
2018-01-29T05:43:07.157Z,0.90
2018-01-29T05:45:35.050Z,0.95
2018-01-29T05:48:03.031Z,1.08
2018-01-29T05:50:30.937Z,0.95
2018-01-29T05:52:58.887Z,0.90
2018-01-29T05:55:27.667Z,1.02
2018-01-29T05:57:55.766Z,1.45
2018-01-29T06:00:23.650Z,1.20
2018-01-29T06:02:51.584Z,0.90
2018-01-29T06:05:19.525Z,1.10
2018-01-29T06:07:47.485Z,1.30
2018-01-29T06:10:15.387Z,1.00
2018-01-29T06:12:43.336Z,1.67
2018-01-29T06:15:11.354Z,1.50
2018-01-29T06:17:39.296Z,2.17
2018-01-29T06:20:07.186Z,1.70
2018-01-29T06:22:35.089Z,1.27
2018-01-29T06:25:03.040Z,1.50
2018-01-29T06:27:30.980Z,1.37
2018-01-29T06:29:58.932Z,1.27
2018-01-29T06:32:26.840Z,1.27
2018-01-29T06:34:54.831Z,1.15
2018-01-29T06:37:22.786Z,1.00
2018-01-29T06:39:50.733Z,0.90
2018-01-29T06:42:18.639Z,1.00
2018-01-29T06:44:47.357Z,1.05
2018-01-29T06:47:15.251Z,0.90
2018-01-29T06:49:43.217Z,1.65
2018-01-29T06:52:11.109Z,1.10
2018-01-29T06:54:39.083Z,0.80
2018-01-29T06:57:07.003Z,1.05
2018-01-29T06:59:34.958Z,0.90
2018-01-29T07:02:02.866Z,0.80
2018-01-29T07:04:30.805Z,1.15
2018-01-29T07:06:58.802Z,0.98
2018-01-29T07:09:26.832Z,1.35
2018-01-29T07:11:54.746Z,1.20
2018-01-29T07:14:22.703Z,0.90
2018-01-29T07:16:50.597Z,1.10
2018-01-29T07:19:18.554Z,1.10
2018-01-29T07:21:46.459Z,1.05
2018-01-29T07:24:14.411Z,0.93
2018-01-29T07:26:42.325Z,1.05
2018-01-29T07:29:10.219Z,0.60
2018-01-29T07:31:38.168Z,1.20
2018-01-29T07:34:06.073Z,0.70
2018-01-29T07:36:34.101Z,1.12
2018-01-29T07:39:01.998Z,0.80
2018-01-29T07:41:29.939Z,1.05
2018-01-29T07:43:57.892Z,0.80
2018-01-29T07:46:26.610Z,1.00
2018-01-29T07:48:54.520Z,0.93
2018-01-29T07:51:22.506Z,2.05
2018-01-29T07:53:51.234Z,1.20
2018-01-29T07:56:19.203Z,1.02
2018-01-29T07:58:47.129Z,1.58
2018-01-29T08:01:15.179Z,0.95
2018-01-29T08:03:43.095Z,0.90
2018-01-29T08:06:12.240Z,1.02
2018-01-29T08:08:40.148Z,1.10
2018-01-29T08:11:08.149Z,1.05
2018-01-29T08:13:36.039Z,1.10
2018-01-29T08:16:04.013Z,0.90
2018-01-29T08:18:31.971Z,1.00
2018-01-29T08:20:59.932Z,0.90
2018-01-29T08:23:27.825Z,0.90
2018-01-29T08:25:55.783Z,1.00
2018-01-29T08:28:23.715Z,0.80
2018-01-29T08:30:52.611Z,0.85
2018-01-29T08:33:20.511Z,1.35
2018-01-29T08:35:48.463Z,1.12
2018-01-29T08:38:16.382Z,1.83
2018-01-29T08:40:44.364Z,1.35
2018-01-29T08:43:12.288Z,1.00
2018-01-29T08:45:40.329Z,1.17
2018-01-29T08:48:08.207Z,1.30
2018-01-29T08:50:36.164Z,1.42
2018-01-29T08:53:04.124Z,1.15
2018-01-29T08:55:32.099Z,1.20
2018-01-29T08:58:06.320Z,1.80
2018-01-29T09:00:35.064Z,1.40
2018-01-29T09:03:02.964Z,1.65
2018-01-29T09:05:30.917Z,1.35
2018-01-29T09:07:58.807Z,1.67
2018-01-29T09:10:26.831Z,1.62
2018-01-29T09:12:54.742Z,1.60
2018-01-29T09:15:22.720Z,1.48
2018-01-29T09:17:51.431Z,1.50
2018-01-29T09:20:19.457Z,1.52
2018-01-29T09:22:47.371Z,1.52
2018-01-29T09:25:15.361Z,1.20
2018-01-29T09:27:44.161Z,1.77
2018-01-29T09:30:12.202Z,1.50
2018-01-29T09:32:40.128Z,1.75
2018-01-29T09:35:08.083Z,1.70
2018-01-29T09:37:35.986Z,1.90
2018-01-29T09:40:04.044Z,1.50
2018-01-29T09:42:31.969Z,1.50
2018-01-29T09:44:59.927Z,2.10
2018-01-29T09:47:27.832Z,1.45
2018-01-29T09:49:55.830Z,1.50
2018-01-29T09:52:23.740Z,1.90
2018-01-29T09:54:51.642Z,1.35
2018-01-29T09:57:19.670Z,1.75
2018-01-29T09:59:47.591Z,1.50
2018-01-29T10:02:15.612Z,1.75
2018-01-29T10:04:43.556Z,1.70
2018-01-29T10:07:11.504Z,2.37
2018-01-29T10:09:39.416Z,2.08
2018-01-29T10:12:07.387Z,1.85
2018-01-29T10:14:35.349Z,2.05
2018-01-29T10:17:03.403Z,2.03
2018-01-29T10:19:32.065Z,1.62
2018-01-29T10:22:00.019Z,2.10
2018-01-29T10:24:27.926Z,1.80
2018-01-29T10:27:02.754Z,1.75
2018-01-29T10:29:31.395Z,1.80
2018-01-29T10:31:59.371Z,2.20
2018-01-29T10:34:27.301Z,1.98
2018-01-29T10:36:55.274Z,2.85
2018-01-29T10:39:23.247Z,2.50
2018-01-29T10:41:51.218Z,1.77
2018-01-29T10:44:19.294Z,2.20
2018-01-29T10:46:47.233Z,2.53
2018-01-29T10:49:15.104Z,2.28
2018-01-29T10:51:43.917Z,2.53
2018-01-29T10:54:11.825Z,2.72
2018-01-29T10:56:41.867Z,2.80
2018-01-29T10:59:09.773Z,2.65
2018-01-29T11:01:43.353Z,3.08
2018-01-29T11:04:11.259Z,2.40
2018-01-29T11:06:39.230Z,3.12
2018-01-29T11:09:07.161Z,2.60
2018-01-29T11:11:35.129Z,3.30
2018-01-29T11:14:03.016Z,3.08
2018-01-29T11:16:30.989Z,2.90
2018-01-29T11:18:59.645Z,2.53
2018-01-29T11:21:27.586Z,2.45
2018-01-29T11:23:55.551Z,2.85
2018-01-29T11:26:23.512Z,1.80
2018-01-29T11:28:51.385Z,2.15
2018-01-29T11:31:19.405Z,3.05
2018-01-29T11:33:48.037Z,3.05
2018-01-29T11:36:15.935Z,2.37
2018-01-29T11:38:44.157Z,2.35
2018-01-29T11:41:12.178Z,1.90
2018-01-29T11:43:40.049Z,2.75
2018-01-29T11:46:07.981Z,2.17
2018-01-29T11:48:36.517Z,2.28
2018-01-29T11:51:04.772Z,2.70
2018-01-29T11:53:32.663Z,2.00
2018-01-29T11:56:00.621Z,2.30
2018-01-29T11:58:28.620Z,2.25
2018-01-29T12:00:56.581Z,2.30
2018-01-29T12:03:24.503Z,1.87
2018-01-29T12:05:52.444Z,1.83
2018-01-29T12:08:21.337Z,1.98
2018-01-29T12:10:49.276Z,1.65
2018-01-29T12:13:17.162Z,1.90
2018-01-29T12:15:45.855Z,1.98
2018-01-29T12:18:14.492Z,1.65
2018-01-29T12:20:42.426Z,1.90
2018-01-29T12:23:10.319Z,2.00
2018-01-29T12:25:38.290Z,1.80
2018-01-29T12:28:06.189Z,1.80
2018-01-29T12:30:34.207Z,1.80
2018-01-29T12:33:02.695Z,1.65
2018-01-29T12:35:30.634Z,2.08
2018-01-29T12:37:58.519Z,1.50
2018-01-29T12:40:26.393Z,1.50
2018-01-29T12:42:54.357Z,1.50
2018-01-29T12:45:22.241Z,1.65
2018-01-29T12:47:50.164Z,1.30
2018-01-29T12:50:18.035Z,1.40
2018-01-29T12:52:46.081Z,1.65
2018-01-29T12:55:13.969Z,1.52
2018-01-29T12:57:42.099Z,1.40
2018-01-29T13:00:09.985Z,1.10
2018-01-29T13:02:37.913Z,1.45
2018-01-29T13:05:05.788Z,1.42
2018-01-29T13:07:33.851Z,1.55
2018-01-29T13:10:01.723Z,1.50
2018-01-29T13:12:29.648Z,1.83
2018-01-29T13:14:57.564Z,1.42
2018-01-29T13:17:25.501Z,1.45
2018-01-29T13:19:53.377Z,1.40
2018-01-29T13:22:21.312Z,1.50
2018-01-29T13:24:49.208Z,1.75
2018-01-29T13:27:17.172Z,1.80
2018-01-29T13:29:45.039Z,2.15
2018-01-29T13:32:12.988Z,1.85
2018-01-29T13:34:40.926Z,1.35
2018-01-29T13:37:08.846Z,1.58
2018-01-29T13:39:36.728Z,1.77
2018-01-29T13:42:04.663Z,1.85
2018-01-29T13:44:32.617Z,1.48
2018-01-29T13:47:00.527Z,1.45
2018-01-29T13:49:28.419Z,1.05
2018-01-29T13:51:57.116Z,1.05
2018-01-29T13:54:25.073Z,1.23
2018-01-29T13:56:54.614Z,1.60
2018-01-29T13:59:23.130Z,1.50
2018-01-29T14:01:51.037Z,1.00
2018-01-29T14:04:19.692Z,0.90
2018-01-29T14:06:48.862Z,1.27
2018-01-29T14:09:16.765Z,1.10
2018-01-29T14:11:44.675Z,1.10
2018-01-29T14:14:12.553Z,1.02
2018-01-29T14:16:40.496Z,1.17
2018-01-29T14:19:09.146Z,1.00
2018-01-29T14:21:37.106Z,1.10
2018-01-29T14:24:05.035Z,1.50
2018-01-29T14:26:32.983Z,1.10
2018-01-29T14:29:00.892Z,1.00
2018-01-29T14:31:28.798Z,0.98
2018-01-29T14:33:56.665Z,1.58
2018-01-29T14:36:24.765Z,1.10
2018-01-29T14:38:53.484Z,1.05
2018-01-29T14:41:21.466Z,1.30
2018-01-29T14:43:49.359Z,1.33
2018-01-29T14:46:17.249Z,1.20
2018-01-29T14:48:45.115Z,1.12
2018-01-29T14:51:13.811Z,1.17
2018-01-29T14:53:42.534Z,1.10
2018-01-29T14:56:10.476Z,1.50
2018-01-29T14:58:38.361Z,1.20
2018-01-29T15:01:06.274Z,1.80
2018-01-29T15:03:34.148Z,1.02
2018-01-29T15:06:02.065Z,1.30
2018-01-29T15:08:29.922Z,1.90
2018-01-29T15:10:57.788Z,1.92
2018-01-29T15:13:26.610Z,1.17
2018-01-29T15:15:54.478Z,1.10
2018-01-29T15:18:22.462Z,1.50
2018-01-29T15:20:50.348Z,1.70
2018-01-29T15:23:18.294Z,1.60
2018-01-29T15:25:46.218Z,2.00
2018-01-29T15:28:18.915Z,1.65
2018-01-29T15:30:46.833Z,1.80
2018-01-29T15:33:14.809Z,1.70
2018-01-29T15:35:42.756Z,1.75
2018-01-29T15:38:10.674Z,1.83
2018-01-29T15:40:39.329Z,1.70
2018-01-29T15:43:07.283Z,1.92
2018-01-29T15:45:35.177Z,1.73
2018-01-29T15:48:03.122Z,1.50
2018-01-29T15:50:31.000Z,1.60
2018-01-29T15:52:58.927Z,2.00
2018-01-29T15:55:26.896Z,2.05
2018-01-29T15:57:58.231Z,1.77
2018-01-29T16:00:26.889Z,2.20
2018-01-29T16:02:54.828Z,1.55
2018-01-29T16:05:22.707Z,1.42
2018-01-29T16:07:50.641Z,1.42
2018-01-29T16:10:18.509Z,1.50
2018-01-29T16:12:46.483Z,2.08
2018-01-29T16:15:14.463Z,1.65
2018-01-29T16:17:42.410Z,2.00
2018-01-29T16:20:10.308Z,2.00
2018-01-29T16:22:38.184Z,1.95
2018-01-29T16:25:06.110Z,1.80
2018-01-29T16:27:38.441Z,1.90
2018-01-29T16:30:06.407Z,1.50
2018-01-29T16:32:34.338Z,1.67
2018-01-29T16:35:02.320Z,1.40
2018-01-29T16:37:30.221Z,2.17
2018-01-29T16:39:58.173Z,1.70
2018-01-29T16:42:26.055Z,1.83
2018-01-29T16:44:54.041Z,1.62
2018-01-29T16:47:21.938Z,1.45
2018-01-29T16:49:49.875Z,1.45
2018-01-29T16:52:17.735Z,1.10
2018-01-29T16:54:45.677Z,1.45
2018-01-29T16:57:13.564Z,1.35
2018-01-29T16:59:41.579Z,1.30
2018-01-29T17:02:10.260Z,1.40
2018-01-29T17:04:38.957Z,1.10
2018-01-29T17:07:06.845Z,1.35
2018-01-29T17:09:34.880Z,1.50
2018-01-29T17:12:02.791Z,1.25
2018-01-29T17:14:30.763Z,1.40
2018-01-29T17:16:58.632Z,1.40
2018-01-29T17:19:26.577Z,1.30
2018-01-29T17:21:54.483Z,1.33
2018-01-29T17:24:22.354Z,2.00
2018-01-29T17:26:50.481Z,1.35
2018-01-29T17:29:19.138Z,1.45
2018-01-29T17:31:47.060Z,1.15
2018-01-29T17:34:14.923Z,2.10
2018-01-29T17:36:42.852Z,1.42
2018-01-29T17:39:10.760Z,1.50
2018-01-29T17:41:38.812Z,1.15
2018-01-29T17:44:07.448Z,1.60
2018-01-29T17:46:35.398Z,2.08
2018-01-29T17:49:03.374Z,1.70
2018-01-29T17:51:31.342Z,4.10
2018-01-29T17:53:59.358Z,3.35
2018-01-29T17:56:27.283Z,4.75
2018-01-29T17:58:55.222Z,1.80
2018-01-29T18:01:23.193Z,4.10
2018-01-29T18:03:51.833Z,5.97
2018-01-29T18:06:20.606Z,4.10
2018-01-29T18:08:48.467Z,1.80
2018-01-29T18:11:17.157Z,1.58
2018-01-29T18:13:45.037Z,1.25
2018-01-29T18:16:12.960Z,1.12
2018-01-29T18:18:40.844Z,1.55
2018-01-29T18:21:13.092Z,1.27
2018-01-29T18:23:41.163Z,0.90
2018-01-29T18:26:10.171Z,1.95
2018-01-29T18:28:38.060Z,1.10
2018-01-29T18:31:05.933Z,1.75
2018-01-29T18:33:34.508Z,2.03
2018-01-29T18:36:02.499Z,1.02
2018-01-29T18:38:30.451Z,1.45
2018-01-29T18:40:59.974Z,1.15
2018-01-29T18:43:27.897Z,1.40
2018-01-29T18:45:56.329Z,1.42
2018-01-29T18:48:24.351Z,1.00
2018-01-29T18:50:52.231Z,1.80
2018-01-29T18:53:20.158Z,1.30
2018-01-29T18:55:48.042Z,1.25
2018-01-29T18:58:15.970Z,1.30
2018-01-29T19:00:43.861Z,1.90
2018-01-29T19:03:11.771Z,1.30
2018-01-29T19:05:39.965Z,1.50
2018-01-29T19:08:07.912Z,2.03
2018-01-29T19:10:35.780Z,1.25
2018-01-29T19:13:03.717Z,1.80
2018-01-29T19:15:31.591Z,6.50
2018-01-29T19:17:59.527Z,1.37
2018-01-29T19:20:27.395Z,1.60
2018-01-29T19:22:55.346Z,1.98
2018-01-29T19:25:23.226Z,1.45
2018-01-29T19:27:51.185Z,1.48
2018-01-29T19:30:19.069Z,3.15
2018-01-29T19:32:46.995Z,1.90
2018-01-29T19:35:15.645Z,1.95
2018-01-29T19:37:43.571Z,1.40
2018-01-29T19:40:11.466Z,1.30
2018-01-29T19:42:39.424Z,1.37
2018-01-29T19:45:07.301Z,0.82
2018-01-29T19:47:36.507Z,1.37
2018-01-29T19:50:04.371Z,1.10
2018-01-29T19:52:32.473Z,1.20
2018-01-29T19:55:00.707Z,1.50
2018-01-29T19:57:28.635Z,1.20
2018-01-29T19:59:56.488Z,1.27
2018-01-29T20:02:24.363Z,1.12
2018-01-29T20:04:52.495Z,1.00
2018-01-29T20:07:20.399Z,1.40
2018-01-29T20:09:48.324Z,1.20
2018-01-29T20:12:16.271Z,1.30
2018-01-29T20:14:44.212Z,1.15
2018-01-29T20:17:12.273Z,1.30
2018-01-29T20:19:40.195Z,1.75
2018-01-29T20:22:08.073Z,1.25
2018-01-29T20:24:35.995Z,1.50
2018-01-29T20:27:03.990Z,1.40
2018-01-29T20:29:31.925Z,1.77
2018-01-29T20:31:59.815Z,1.60
2018-01-29T20:34:28.499Z,1.52
2018-01-29T20:36:56.580Z,3.10
2018-01-29T20:39:25.311Z,2.22
2018-01-29T20:41:53.245Z,2.40
2018-01-29T20:44:21.199Z,2.20
2018-01-29T20:46:50.069Z,1.70
2018-01-29T20:49:18.017Z,1.48
2018-01-29T20:51:45.916Z,1.40
2018-01-29T20:54:13.919Z,1.50
2018-01-29T20:56:41.824Z,2.08
2018-01-29T20:59:09.743Z,2.30
2018-01-29T21:01:38.392Z,1.73
2018-01-29T21:04:06.360Z,2.10
2018-01-29T21:06:34.311Z,2.08
2018-01-29T21:09:02.198Z,2.45
2018-01-29T21:11:30.189Z,2.55
2018-01-29T21:13:58.122Z,3.30
2018-01-29T21:16:26.064Z,3.20
2018-01-29T21:18:53.947Z,3.35
2018-01-29T21:21:21.893Z,2.95
2018-01-29T21:23:50.525Z,2.15
2018-01-29T21:26:18.435Z,1.80
2018-01-29T21:28:46.442Z,1.80
2018-01-29T21:31:14.427Z,2.03
2018-01-29T21:33:42.824Z,1.95
2018-01-29T21:36:10.744Z,2.45
2018-01-29T21:38:38.652Z,3.20
2018-01-29T21:41:06.578Z,3.35
2018-01-29T21:43:34.470Z,3.30
2018-01-29T21:46:03.175Z,3.22
2018-01-29T21:48:31.061Z,3.85
2018-01-29T21:50:59.068Z,4.00
2018-01-29T21:53:26.940Z,4.28
2018-01-29T21:55:54.985Z,4.65
2018-01-29T21:58:22.865Z,4.68
2018-01-29T22:00:50.802Z,5.20
2018-01-29T22:03:18.786Z,5.65
2018-01-29T22:05:46.730Z,5.62
2018-01-29T22:08:14.591Z,6.15
2018-01-29T22:10:42.532Z,6.78
2018-01-29T22:13:10.393Z,4.87
2018-01-29T22:15:38.328Z,4.55
2018-01-29T22:18:06.976Z,4.70
2018-01-29T22:20:34.843Z,4.78
2018-01-29T22:23:02.792Z,4.95
2018-01-29T22:25:30.727Z,4.70
2018-01-29T22:27:58.890Z,5.53
2018-01-29T22:30:26.790Z,5.18
2018-01-29T22:32:54.738Z,5.30
2018-01-29T22:35:22.657Z,4.20
2018-01-29T22:37:50.657Z,4.30
2018-01-29T22:40:18.531Z,3.80
2018-01-29T22:42:46.468Z,4.90
2018-01-29T22:45:14.378Z,4.30
2018-01-29T22:47:42.308Z,4.62
2018-01-29T22:50:10.222Z,5.15
2018-01-29T22:52:38.183Z,3.45
2018-01-29T22:55:06.067Z,4.87
2018-01-29T22:57:34.000Z,4.53
2018-01-29T23:00:01.899Z,3.87
2018-01-29T23:02:29.832Z,3.80
2018-01-29T23:04:57.689Z,4.30
2018-01-29T23:07:34.835Z,3.70
2018-01-29T23:10:03.474Z,3.12
2018-01-29T23:12:31.525Z,3.08
2018-01-29T23:14:59.412Z,3.85
2018-01-29T23:17:27.429Z,4.12
2018-01-29T23:19:56.177Z,4.00
2018-01-29T23:22:24.078Z,2.72
2018-01-29T23:24:52.000Z,3.03
2018-01-29T23:27:19.984Z,3.47
2018-01-29T23:29:47.885Z,3.75
2018-01-29T23:32:15.756Z,3.80
2018-01-29T23:34:43.673Z,3.58
2018-01-29T23:37:11.654Z,4.35
2018-01-29T23:39:39.579Z,3.58
2018-01-29T23:42:07.577Z,4.40
2018-01-29T23:44:35.900Z,4.50
2018-01-29T23:47:03.784Z,3.60
2018-01-29T23:49:31.704Z,3.20
2018-01-29T23:51:59.602Z,3.00
2018-01-29T23:54:27.515Z,3.87
2018-01-29T23:56:55.386Z,3.50
2018-01-29T23:59:23.316Z,3.33
